Enduring Freedom — WDA8351 — position and weather

sailwx.info

Track history (hours):
 
Tides and Currents Weather Stations Pressure Air Temp Water Temp Dewpoint Dewpoint Depression Visibility Wind Speed Wind Dir Waves Ship Positions

Enduring Freedom

Owner: PORT IMPERIAL FERRY CORP, WEEHAWKEN, NJ. More information available from US FCC via Universal Licensing System and Coast Guard Vessel Documentation Center.

Last reported at 2018-May-23 00:21 UTC. Time now 2018-May-23 09:48 UTC.
Position N 40°46' W 074°01'.

Length 22 m; draft 2 m.

Type: Passenger vessel. MMSI: 366853420.

Date/timePositionNaut miles runAvg speedWind from/ knotsBaromVisibWave heightAir tempDewpointWater temp
2018-May-23 00:21N 40°46' W 074°01'412.7
2018-May-23 00:00N 40°42' W 074°00'2 3.4
2018-May-22 23:30N 40°43' W 074°03'0 0.1
2018-May-22 23:00N 40°43' W 074°03'0 0.1
2018-May-22 22:31N 40°43' W 074°03'0 0.1
2018-May-22 22:01N 40°43' W 074°03'0 0.0
2018-May-22 21:30N 40°43' W 074°03'0 0.4
2018-May-22 21:00N 40°43' W 074°02'0 0.4
2018-May-22 20:30N 40°43' W 074°03'1 1.6
2018-May-22 20:01N 40°43' W 074°02'3 5.1
2018-May-22 19:23N 40°46' W 074°01'0 0.0
2018-May-22 18:19N 40°46' W 074°01'0 0.0
2018-May-22 18:00N 40°46' W 074°01'4 7.3
2018-May-22 17:31N 40°43' W 074°02'1 2.5
2018-May-22 17:00N 40°42' W 074°00'1 2.5
2018-May-22 16:30N 40°43' W 074°02'1 2.5
2018-May-22 16:00N 40°42' W 074°00'1 2.8
2018-May-22 15:30N 40°43' W 074°02'1 2.7
2018-May-22 15:00N 40°42' W 074°00'1 2.3
2018-May-22 14:30N 40°43' W 074°02'1 2.5
2018-May-22 14:01N 40°42' W 074°00'2 3.6
2018-May-22 13:30N 40°43' W 074°03'0 0.0
2018-May-22 13:00N 40°43' W 074°03'0 0.0
2018-May-22 12:30N 40°43' W 074°03'0 0.0
2018-May-22 12:00N 40°43' W 074°03'0 0.0
2018-May-22 11:30N 40°43' W 074°03'0 0.0
2018-May-22 11:00N 40°43' W 074°03'0 0.0
2018-May-22 10:30N 40°43' W 074°03'0 0.0
2018-May-22 10:01N 40°43' W 074°03'0 0.1
2018-May-22 09:29N 40°43' W 074°03'0 0.0
2018-May-22 01:49N 40°43' W 074°03'2 5.4
2018-May-22 01:30N 40°41' W 074°02'1 2.9
2018-May-22 01:01N 40°42' W 074°01'1 2.9
2018-May-22 00:31N 40°41' W 074°02'1 2.9
2018-May-22 00:00N 40°42' W 074°01'0 0.6
2018-May-21 23:30N 40°42' W 074°00'0 0.0
2018-May-21 23:00N 40°42' W 074°00'0 0.0
2018-May-21 22:31N 40°42' W 074°00'0 0.0
2018-May-21 22:01N 40°42' W 074°00'0 0.0
2018-May-21 21:30N 40°42' W 074°00'0 0.0
2018-May-21 21:00N 40°42' W 074°00'0 0.0
2018-May-21 20:31N 40°42' W 074°00'0 0.0
2018-May-21 20:01N 40°42' W 074°00'1 2.8
2018-May-21 19:30N 40°43' W 074°02'1 2.8
2018-May-21 19:00N 40°42' W 074°00'1 2.8
2018-May-21 18:31N 40°43' W 074°02'1 2.8
2018-May-21 18:00N 40°42' W 074°00'2 4.3
2018-May-21 17:30N 40°44' W 074°02'2 0.7
2018-May-21 14:13N 40°46' W 074°01'417.6
2018-May-21 14:01N 40°43' W 074°01'1 1.9
2018-May-21 13:30N 40°42' W 074°00'0 0.0
2018-May-21 13:00N 40°42' W 074°00'0 0.0
2018-May-21 12:30N 40°42' W 074°00'0 0.0
2018-May-21 12:00N 40°42' W 074°00'0 0.0
2018-May-21 11:30N 40°42' W 074°00'0 0.0
2018-May-21 11:00N 40°42' W 074°00'0 0.1
2018-May-21 10:30N 40°42' W 074°00'2 4.6
2018-May-21 10:00N 40°44' W 074°01'2 0.2
2018-May-21 00:29N 40°46' W 074°01'1 2.3
2018-May-20 23:59N 40°45' W 074°01'1 1.6
2018-May-20 23:29N 40°46' W 074°00'1 1.7
2018-May-20 23:00N 40°45' W 074°01'1 1.4
2018-May-20 22:27N 40°46' W 074°00'1 1.6
2018-May-20 22:00N 40°45' W 074°01'1 1.2
2018-May-20 21:28N 40°46' W 074°00'1 1.4
2018-May-20 20:59N 40°45' W 074°01'1 1.5
2018-May-20 20:28N 40°46' W 074°00'1 1.6
2018-May-20 19:59N 40°45' W 074°01'0 0.9
2018-May-20 19:28N 40°45' W 074°01'0 0.8
2018-May-20 19:00N 40°45' W 074°01'1 1.3
2018-May-20 18:29N 40°46' W 074°00'1 1.6
2018-May-20 18:00N 40°45' W 074°01'1 1.3
2018-May-20 17:29N 40°46' W 074°00'1 1.4
2018-May-20 17:00N 40°45' W 074°01'1 1.4
2018-May-20 16:30N 40°46' W 074°00'1 1.4
2018-May-20 16:00N 40°46' W 074°01'1 1.5
2018-May-20 15:30N 40°46' W 074°00'1 1.5
2018-May-20 15:00N 40°46' W 074°01'0 0.9
2018-May-20 14:30N 40°45' W 074°01'0 0.9
2018-May-20 13:59N 40°46' W 074°01'1 1.6
2018-May-20 13:29N 40°46' W 074°00'1 1.4
2018-May-20 13:00N 40°45' W 074°01'1 0.1
2018-May-20 04:26N 40°46' W 074°01'1 2.9
2018-May-20 04:00N 40°45' W 074°01'1 1.7
2018-May-20 03:30N 40°46' W 074°00'1 1.5
2018-May-20 03:00N 40°45' W 074°01'1 1.5
2018-May-20 02:30N 40°46' W 074°00'1 1.7
2018-May-20 02:00N 40°46' W 074°01'1 1.4
2018-May-20 01:27N 40°46' W 074°00'1 1.5
2018-May-20 01:00N 40°45' W 074°01'1 1.2
2018-May-20 00:28N 40°46' W 074°00'1 1.6
2018-May-20 00:00N 40°45' W 074°01'1 1.4
2018-May-19 23:29N 40°46' W 074°00'1 1.5
2018-May-19 22:59N 40°46' W 074°01'1 1.6
2018-May-19 22:30N 40°46' W 074°00'1 1.6
2018-May-19 22:00N 40°46' W 074°01'1 1.4
2018-May-19 21:28N 40°46' W 074°00'1 1.5
2018-May-19 20:59N 40°46' W 074°01'1 1.4
2018-May-19 20:29N 40°46' W 074°00'1 1.4
2018-May-19 20:00N 40°45' W 074°01'1 1.2
2018-May-19 19:27N 40°46' W 074°00'1 1.4
2018-May-19 19:00N 40°45' W 074°01'1 1.1
2018-May-19 18:25N 40°46' W 074°00'1 1.7
2018-May-19 17:58N 40°45' W 074°01'1 1.8
2018-May-19 17:29N 40°46' W 074°00'1 1.8
2018-May-19 16:59N 40°45' W 074°01'1 1.6
2018-May-19 16:26N 40°46' W 074°00'1 2.1
2018-May-19 16:00N 40°45' W 074°01'1 1.5
2018-May-19 15:24N 40°46' W 074°00'1 1.7
2018-May-19 14:59N 40°45' W 074°01'1 1.4
2018-May-19 14:30N 40°46' W 074°00'1 1.6
2018-May-19 13:59N 40°45' W 074°01'1 1.4
2018-May-19 13:25N 40°46' W 074°00'1 1.9
2018-May-19 12:59N 40°45' W 074°01'1 0.1
2018-May-19 00:27N 40°46' W 074°01'410.0
2018-May-19 00:00N 40°42' W 074°00'0 0.5
2018-May-18 23:31N 40°42' W 074°00'0 0.0
2018-May-18 23:01N 40°42' W 074°00'0 0.0
2018-May-18 22:30N 40°42' W 074°00'0 0.0
2018-May-18 22:00N 40°42' W 074°00'0 0.0
2018-May-18 21:30N 40°42' W 074°00'0 0.0
2018-May-18 21:01N 40°42' W 074°00'0 0.0
2018-May-18 20:30N 40°42' W 074°00'0 0.0
2018-May-18 20:00N 40°42' W 074°00'1 2.8
2018-May-18 19:30N 40°43' W 074°02'1 2.8
2018-May-18 19:00N 40°42' W 074°00'1 2.7
2018-May-18 18:30N 40°43' W 074°02'1 2.8
2018-May-18 18:01N 40°42' W 074°00'2 4.3
2018-May-18 17:30N 40°44' W 074°02'2 0.7
2018-May-18 14:17N 40°46' W 074°01'2 8.1
2018-May-18 14:00N 40°44' W 074°02'2 3.1
2018-May-18 13:25N 40°46' W 074°00'2 4.4
2018-May-18 13:00N 40°44' W 074°02'2 3.1
2018-May-18 12:27N 40°46' W 074°00'2 4.1
2018-May-18 12:00N 40°44' W 074°02'2 3.2
2018-May-18 11:27N 40°46' W 074°00'2 4.0
2018-May-18 11:00N 40°44' W 074°02'2 3.5
2018-May-18 10:30N 40°46' W 074°01'1 0.1
2018-May-17 23:36N 40°46' W 074°01'112.5
2018-May-17 23:30N 40°45' W 074°01'1 1.1
2018-May-17 23:01N 40°46' W 074°00'2 3.3
2018-May-17 22:30N 40°44' W 074°02'2 3.2
2018-May-17 21:57N 40°46' W 074°00'2 4.1
2018-May-17 21:30N 40°44' W 074°02'2 3.2
2018-May-17 20:56N 40°46' W 074°00'2 4.1
2018-May-17 20:30N 40°44' W 074°02'2 3.0
2018-May-17 19:54N 40°46' W 074°00'1 0.1
2018-May-17 14:16N 40°46' W 074°01'2 8.8
2018-May-17 14:00N 40°44' W 074°02'2 3.0
2018-May-17 13:25N 40°46' W 074°00'2 4.2
2018-May-17 13:00N 40°44' W 074°02'2 3.1
2018-May-17 12:26N 40°46' W 074°00'2 4.1
2018-May-17 12:00N 40°44' W 074°02'2 3.6
2018-May-17 11:30N 40°46' W 074°00'2 3.6
2018-May-17 11:00N 40°44' W 074°02'2 0.2
2018-May-16 23:31N 40°46' W 074°01'128.8
2018-May-16 23:30N 40°45' W 074°01'1 0.9
2018-May-16 22:53N 40°45' W 074°01'1 1.5
2018-May-16 22:30N 40°44' W 074°02'1 0.9
2018-May-16 21:53N 40°44' W 074°01'1 1.4
2018-May-16 21:30N 40°44' W 074°02'1 1.6
2018-May-16 20:54N 40°45' W 074°01'1 2.5
2018-May-16 20:30N 40°44' W 074°02'2 0.9
2018-May-16 17:55N 40°46' W 074°01'2 5.4
2018-May-16 17:30N 40°44' W 074°02'2 0.7
2018-May-16 14:10N 40°46' W 074°01'213.9
2018-May-16 14:00N 40°44' W 074°02'2 3.1
2018-May-16 13:26N 40°46' W 074°00'2 4.1
2018-May-16 13:00N 40°44' W 074°02'2 3.2
2018-May-16 12:27N 40°46' W 074°00'2 4.1
2018-May-16 12:00N 40°44' W 074°02'2 3.6
2018-May-16 11:31N 40°46' W 074°00'2 3.6
2018-May-16 11:00N 40°44' W 074°02'  
Track history (hours):
 
Tides and Currents Weather Stations Pressure Air Temp Water Temp Dewpoint Dewpoint Depression Visibility Wind Speed Wind Dir Waves Ship Positions

Enduring Freedom

Owner: PORT IMPERIAL FERRY CORP, WEEHAWKEN, NJ. More information available from US FCC via Universal Licensing System and Coast Guard Vessel Documentation Center.

Last reported at 2018-May-23 00:21 UTC. Time now 2018-May-23 09:48 UTC.
Position N 40°46' W 074°01'.

Length 22 m; draft 2 m.

Type: Passenger vessel. MMSI: 366853420.

Date/timePositionNaut miles runAvg speedWind from/ knotsBaromVisibWave heightAir tempDewpointWater temp
2018-May-23 00:21N 40°46' W 074°01'412.7
2018-May-23 00:00N 40°42' W 074°00'2 3.4
2018-May-22 23:30N 40°43' W 074°03'0 0.1
2018-May-22 23:00N 40°43' W 074°03'0 0.1
2018-May-22 22:31N 40°43' W 074°03'0 0.1
2018-May-22 22:01N 40°43' W 074°03'0 0.0
2018-May-22 21:30N 40°43' W 074°03'0 0.4
2018-May-22 21:00N 40°43' W 074°02'0 0.4
2018-May-22 20:30N 40°43' W 074°03'1 1.6
2018-May-22 20:01N 40°43' W 074°02'3 5.1
2018-May-22 19:23N 40°46' W 074°01'0 0.0
2018-May-22 18:19N 40°46' W 074°01'0 0.0
2018-May-22 18:00N 40°46' W 074°01'4 7.3
2018-May-22 17:31N 40°43' W 074°02'1 2.5
2018-May-22 17:00N 40°42' W 074°00'1 2.5
2018-May-22 16:30N 40°43' W 074°02'1 2.5
2018-May-22 16:00N 40°42' W 074°00'1 2.8
2018-May-22 15:30N 40°43' W 074°02'1 2.7
2018-May-22 15:00N 40°42' W 074°00'1 2.3
2018-May-22 14:30N 40°43' W 074°02'1 2.5
2018-May-22 14:01N 40°42' W 074°00'2 3.6
2018-May-22 13:30N 40°43' W 074°03'0 0.0
2018-May-22 13:00N 40°43' W 074°03'0 0.0
2018-May-22 12:30N 40°43' W 074°03'0 0.0
2018-May-22 12:00N 40°43' W 074°03'0 0.0
2018-May-22 11:30N 40°43' W 074°03'0 0.0
2018-May-22 11:00N 40°43' W 074°03'0 0.0
2018-May-22 10:30N 40°43' W 074°03'0 0.0
2018-May-22 10:01N 40°43' W 074°03'0 0.1
2018-May-22 09:29N 40°43' W 074°03'0 0.0
2018-May-22 01:49N 40°43' W 074°03'2 5.4
2018-May-22 01:30N 40°41' W 074°02'1 2.9
2018-May-22 01:01N 40°42' W 074°01'1 2.9
2018-May-22 00:31N 40°41' W 074°02'1 2.9
2018-May-22 00:00N 40°42' W 074°01'0 0.6
2018-May-21 23:30N 40°42' W 074°00'0 0.0
2018-May-21 23:00N 40°42' W 074°00'0 0.0
2018-May-21 22:31N 40°42' W 074°00'0 0.0
2018-May-21 22:01N 40°42' W 074°00'0 0.0
2018-May-21 21:30N 40°42' W 074°00'0 0.0
2018-May-21 21:00N 40°42' W 074°00'0 0.0
2018-May-21 20:31N 40°42' W 074°00'0 0.0
2018-May-21 20:01N 40°42' W 074°00'1 2.8
2018-May-21 19:30N 40°43' W 074°02'1 2.8
2018-May-21 19:00N 40°42' W 074°00'1 2.8
2018-May-21 18:31N 40°43' W 074°02'1 2.8
2018-May-21 18:00N 40°42' W 074°00'2 4.3
2018-May-21 17:30N 40°44' W 074°02'2 0.7
2018-May-21 14:13N 40°46' W 074°01'417.6
2018-May-21 14:01N 40°43' W 074°01'1 1.9
2018-May-21 13:30N 40°42' W 074°00'0 0.0
2018-May-21 13:00N 40°42' W 074°00'0 0.0
2018-May-21 12:30N 40°42' W 074°00'0 0.0
2018-May-21 12:00N 40°42' W 074°00'0 0.0
2018-May-21 11:30N 40°42' W 074°00'0 0.0
2018-May-21 11:00N 40°42' W 074°00'0 0.1
2018-May-21 10:30N 40°42' W 074°00'2 4.6
2018-May-21 10:00N 40°44' W 074°01'2 0.2
2018-May-21 00:29N 40°46' W 074°01'1 2.3
2018-May-20 23:59N 40°45' W 074°01'1 1.6
2018-May-20 23:29N 40°46' W 074°00'1 1.7
2018-May-20 23:00N 40°45' W 074°01'1 1.4
2018-May-20 22:27N 40°46' W 074°00'1 1.6
2018-May-20 22:00N 40°45' W 074°01'1 1.2
2018-May-20 21:28N 40°46' W 074°00'1 1.4
2018-May-20 20:59N 40°45' W 074°01'1 1.5
2018-May-20 20:28N 40°46' W 074°00'1 1.6
2018-May-20 19:59N 40°45' W 074°01'0 0.9
2018-May-20 19:28N 40°45' W 074°01'0 0.8
2018-May-20 19:00N 40°45' W 074°01'1 1.3
2018-May-20 18:29N 40°46' W 074°00'1 1.6
2018-May-20 18:00N 40°45' W 074°01'1 1.3
2018-May-20 17:29N 40°46' W 074°00'1 1.4
2018-May-20 17:00N 40°45' W 074°01'1 1.4
2018-May-20 16:30N 40°46' W 074°00'1 1.4
2018-May-20 16:00N 40°46' W 074°01'1 1.5
2018-May-20 15:30N 40°46' W 074°00'1 1.5
2018-May-20 15:00N 40°46' W 074°01'0 0.9
2018-May-20 14:30N 40°45' W 074°01'0 0.9
2018-May-20 13:59N 40°46' W 074°01'1 1.6
2018-May-20 13:29N 40°46' W 074°00'1 1.4
2018-May-20 13:00N 40°45' W 074°01'1 0.1
2018-May-20 04:26N 40°46' W 074°01'1 2.9
2018-May-20 04:00N 40°45' W 074°01'1 1.7
2018-May-20 03:30N 40°46' W 074°00'1 1.5
2018-May-20 03:00N 40°45' W 074°01'1 1.5
2018-May-20 02:30N 40°46' W 074°00'1 1.7
2018-May-20 02:00N 40°46' W 074°01'1 1.4
2018-May-20 01:27N 40°46' W 074°00'1 1.5
2018-May-20 01:00N 40°45' W 074°01'1 1.2
2018-May-20 00:28N 40°46' W 074°00'1 1.6
2018-May-20 00:00N 40°45' W 074°01'1 1.4
2018-May-19 23:29N 40°46' W 074°00'1 1.5
2018-May-19 22:59N 40°46' W 074°01'1 1.6
2018-May-19 22:30N 40°46' W 074°00'1 1.6
2018-May-19 22:00N 40°46' W 074°01'1 1.4
2018-May-19 21:28N 40°46' W 074°00'1 1.5
2018-May-19 20:59N 40°46' W 074°01'1 1.4
2018-May-19 20:29N 40°46' W 074°00'1 1.4
2018-May-19 20:00N 40°45' W 074°01'1 1.2
2018-May-19 19:27N 40°46' W 074°00'1 1.4
2018-May-19 19:00N 40°45' W 074°01'1 1.1
2018-May-19 18:25N 40°46' W 074°00'1 1.7
2018-May-19 17:58N 40°45' W 074°01'1 1.8
2018-May-19 17:29N 40°46' W 074°00'1 1.8
2018-May-19 16:59N 40°45' W 074°01'1 1.6
2018-May-19 16:26N 40°46' W 074°00'1 2.1
2018-May-19 16:00N 40°45' W 074°01'1 1.5
2018-May-19 15:24N 40°46' W 074°00'1 1.7
2018-May-19 14:59N 40°45' W 074°01'1 1.4
2018-May-19 14:30N 40°46' W 074°00'1 1.6
2018-May-19 13:59N 40°45' W 074°01'1 1.4
2018-May-19 13:25N 40°46' W 074°00'1 1.9
2018-May-19 12:59N 40°45' W 074°01'1 0.1
2018-May-19 00:27N 40°46' W 074°01'410.0
2018-May-19 00:00N 40°42' W 074°00'0 0.5
2018-May-18 23:31N 40°42' W 074°00'0 0.0
2018-May-18 23:01N 40°42' W 074°00'0 0.0
2018-May-18 22:30N 40°42' W 074°00'0 0.0
2018-May-18 22:00N 40°42' W 074°00'0 0.0
2018-May-18 21:30N 40°42' W 074°00'0 0.0
2018-May-18 21:01N 40°42' W 074°00'0 0.0
2018-May-18 20:30N 40°42' W 074°00'0 0.0
2018-May-18 20:00N 40°42' W 074°00'1 2.8
2018-May-18 19:30N 40°43' W 074°02'1 2.8
2018-May-18 19:00N 40°42' W 074°00'1 2.7
2018-May-18 18:30N 40°43' W 074°02'1 2.8
2018-May-18 18:01N 40°42' W 074°00'2 4.3
2018-May-18 17:30N 40°44' W 074°02'2 0.7
2018-May-18 14:17N 40°46' W 074°01'2 8.1
2018-May-18 14:00N 40°44' W 074°02'2 3.1
2018-May-18 13:25N 40°46' W 074°00'2 4.4
2018-May-18 13:00N 40°44' W 074°02'2 3.1
2018-May-18 12:27N 40°46' W 074°00'2 4.1
2018-May-18 12:00N 40°44' W 074°02'2 3.2
2018-May-18 11:27N 40°46' W 074°00'2 4.0
2018-May-18 11:00N 40°44' W 074°02'2 3.5
2018-May-18 10:30N 40°46' W 074°01'1 0.1
2018-May-17 23:36N 40°46' W 074°01'112.5
2018-May-17 23:30N 40°45' W 074°01'1 1.1
2018-May-17 23:01N 40°46' W 074°00'2 3.3
2018-May-17 22:30N 40°44' W 074°02'2 3.2
2018-May-17 21:57N 40°46' W 074°00'2 4.1
2018-May-17 21:30N 40°44' W 074°02'2 3.2
2018-May-17 20:56N 40°46' W 074°00'2 4.1
2018-May-17 20:30N 40°44' W 074°02'2 3.0
2018-May-17 19:54N 40°46' W 074°00'1 0.1
2018-May-17 14:16N 40°46' W 074°01'2 8.8
2018-May-17 14:00N 40°44' W 074°02'2 3.0
2018-May-17 13:25N 40°46' W 074°00'2 4.2
2018-May-17 13:00N 40°44' W 074°02'2 3.1
2018-May-17 12:26N 40°46' W 074°00'2 4.1
2018-May-17 12:00N 40°44' W 074°02'2 3.6
2018-May-17 11:30N 40°46' W 074°00'2 3.6
2018-May-17 11:00N 40°44' W 074°02'2 0.2
2018-May-16 23:31N 40°46' W 074°01'128.8
2018-May-16 23:30N 40°45' W 074°01'1 0.9
2018-May-16 22:53N 40°45' W 074°01'1 1.5
2018-May-16 22:30N 40°44' W 074°02'1 0.9
2018-May-16 21:53N 40°44' W 074°01'1 1.4
2018-May-16 21:30N 40°44' W 074°02'1 1.6
2018-May-16 20:54N 40°45' W 074°01'1 2.5
2018-May-16 20:30N 40°44' W 074°02'2 0.9
2018-May-16 17:55N 40°46' W 074°01'2 5.4
2018-May-16 17:30N 40°44' W 074°02'2 0.7
2018-May-16 14:10N 40°46' W 074°01'213.9
2018-May-16 14:00N 40°44' W 074°02'2 3.1
2018-May-16 13:26N 40°46' W 074°00'2 4.1
2018-May-16 13:00N 40°44' W 074°02'2 3.2
2018-May-16 12:27N 40°46' W 074°00'2 4.1
2018-May-16 12:00N 40°44' W 074°02'2 3.6
2018-May-16 11:31N 40°46' W 074°00'2 3.6
2018-May-16 11:00N 40°44' W 074°02'  

Dump ship's entire track history